Republica Dominicana

METAR

SADR31 MDSD 132200Z
METAR

METAR MDPP 132300Z 00000KT 9999 FEW020 SCT300 31/26 Q1012=
METAR MDST 132300Z 06006KT 9999 FEW021CB FEW023 28/21 Q1012
CB/SE/S/SW=
METAR MDPC 132300Z 00000KT 9999 FEW020 SCT300 26/23 Q1013=
METAR MDBH 132300Z 13012KT 9999 FEW018CB FEW020 SCT300 28/25 Q1012
CB/W/NW/N=
METAR MDJB 132300Z 00000KT 9999 FEW017CB FEW018 27/24 Q1012 CB/E=
METAR MDSD 132300Z 00000KT 9999 TS FEW018CB SCT020 SCT300 28/24
Q1012 CB/NE/E/SE/N=
METAR MDLR 132300Z 00000KT 8000 VCSH FEW018CB BKN019 SCT300 26/24
Q1012 CB/SW/W/NW/OVER STATION=
METAR MDCY 132300Z 09006KT 9999 FEW017CB FEW018 SCT300 27/25 Q1012
CB/S/NW=




Tamaño letra

Contraste

Otros